createdAt,value
2022-08-14T00:01:30.248Z,7.43
2022-08-14T00:04:34.273Z,9.43
2022-08-14T00:07:22.256Z,5.13
2022-08-14T00:10:51.725Z,6.28
2022-08-14T00:13:20.969Z,6.90
2022-08-14T00:16:07.870Z,6.78
2022-08-14T00:19:06.505Z,7.63
2022-08-14T00:21:59.134Z,6.50
2022-08-14T00:24:45.814Z,5.93
2022-08-14T00:27:37.707Z,6.82
2022-08-14T00:30:24.330Z,6.70
2022-08-14T00:33:15.362Z,5.75
2022-08-14T00:36:35.082Z,8.13
2022-08-14T00:39:09.496Z,6.40
2022-08-14T00:41:56.064Z,6.70
2022-08-14T00:44:43.088Z,4.45
2022-08-14T00:47:31.241Z,5.00
2022-08-14T00:50:30.541Z,6.63
2022-08-14T00:53:17.247Z,4.38
2022-08-14T00:56:07.077Z,6.75
2022-08-14T00:58:56.049Z,6.53
2022-08-14T01:01:41.615Z,8.00
2022-08-14T01:04:37.690Z,6.75
2022-08-14T01:07:47.333Z,4.93
2022-08-14T01:10:51.437Z,6.20
2022-08-14T01:13:42.711Z,9.32
2022-08-14T01:16:31.446Z,9.00
2022-08-14T01:19:35.765Z,10.07
2022-08-14T01:22:26.876Z,6.20
2022-08-14T01:25:12.647Z,8.30
2022-08-14T01:27:58.780Z,5.53
2022-08-14T01:30:44.896Z,7.90
2022-08-14T01:33:30.506Z,7.63
2022-08-14T01:36:39.297Z,5.63
2022-08-14T01:39:25.967Z,5.20
2022-08-14T01:42:11.618Z,7.32
2022-08-14T01:45:17.876Z,7.68
2022-08-14T01:48:13.282Z,5.93
2022-08-14T01:51:03.391Z,7.35
2022-08-14T01:53:56.260Z,5.47
2022-08-14T01:56:44.477Z,7.60
2022-08-14T01:59:38.207Z,6.88
2022-08-14T02:02:24.482Z,10.38
2022-08-14T02:05:14.354Z,9.82
2022-08-14T02:08:09.007Z,8.23
2022-08-14T02:11:16.771Z,8.57
2022-08-14T02:14:07.906Z,9.77
2022-08-14T02:16:54.892Z,7.97
2022-08-14T02:19:40.746Z,8.63
2022-08-14T02:22:29.194Z,7.10
2022-08-14T02:25:18.591Z,7.93
2022-08-14T02:28:25.237Z,9.57
2022-08-14T02:31:14.992Z,5.63
2022-08-14T02:34:20.168Z,10.68
2022-08-14T02:37:10.925Z,5.07
2022-08-14T02:39:57.427Z,5.75
2022-08-14T02:42:55.203Z,5.18
2022-08-14T02:45:45.358Z,6.72
2022-08-14T02:49:01.575Z,6.00
2022-08-14T02:51:41.275Z,6.30
2022-08-14T02:54:28.135Z,6.45
2022-08-14T02:57:39.303Z,9.13
2022-08-14T03:00:27.288Z,11.23
2022-08-14T03:03:20.567Z,8.38
2022-08-14T03:06:11.312Z,6.18
2022-08-14T03:08:59.229Z,6.75
2022-08-14T03:11:45.720Z,8.68
2022-08-14T03:14:36.744Z,8.27
2022-08-14T03:17:22.430Z,7.22
2022-08-14T03:20:11.340Z,5.97
2022-08-14T03:23:03.132Z,6.00
2022-08-14T03:25:50.770Z,11.88
2022-08-14T03:28:36.866Z,8.10
2022-08-14T03:31:26.013Z,5.22
2022-08-14T03:34:24.978Z,6.15
2022-08-14T03:37:50.733Z,9.35
2022-08-14T03:40:25.269Z,9.10
2022-08-14T03:43:10.991Z,10.80
2022-08-14T03:45:56.524Z,7.18
2022-08-14T03:48:43.278Z,6.90
2022-08-14T03:51:28.708Z,8.88
2022-08-14T03:54:15.854Z,9.75
2022-08-14T03:57:06.383Z,8.18
2022-08-14T03:59:51.720Z,12.88
2022-08-14T04:02:47.087Z,9.00
2022-08-14T04:05:42.606Z,9.98
2022-08-14T04:08:31.842Z,11.93
2022-08-14T04:11:18.386Z,8.20
2022-08-14T04:14:05.492Z,11.25
2022-08-14T04:16:52.731Z,11.45
2022-08-14T04:19:39.516Z,13.43
2022-08-14T04:22:26.742Z,13.30
2022-08-14T04:25:12.271Z,13.98
2022-08-14T04:28:02.107Z,13.52
2022-08-14T04:30:49.178Z,16.10
2022-08-14T04:33:36.332Z,9.98
2022-08-14T04:36:24.006Z,10.73
2022-08-14T04:39:28.503Z,9.40
2022-08-14T04:42:33.076Z,10.43
2022-08-14T04:45:23.799Z,9.15
2022-08-14T04:48:39.533Z,8.85
2022-08-14T04:51:27.587Z,19.90
2022-08-14T04:54:16.622Z,8.80
2022-08-14T04:57:02.514Z,7.43
2022-08-14T04:59:48.056Z,7.75
2022-08-14T05:02:34.673Z,11.73
2022-08-14T05:05:23.130Z,11.27
2022-08-14T05:08:32.324Z,11.30
2022-08-14T05:11:19.840Z,11.07
2022-08-14T05:14:33.824Z,9.50
2022-08-14T05:17:12.107Z,11.85
2022-08-14T05:21:10.860Z,10.73
2022-08-14T05:23:03.763Z,11.90
2022-08-14T05:26:03.707Z,13.02
2022-08-14T05:28:49.392Z,8.13
2022-08-14T05:31:39.858Z,7.45
2022-08-14T05:34:32.036Z,10.23
2022-08-14T05:37:17.696Z,9.82
2022-08-14T05:40:03.717Z,11.68
2022-08-14T05:42:49.262Z,11.00
2022-08-14T05:45:38.515Z,11.90
2022-08-14T05:48:33.565Z,12.35
2022-08-14T05:51:28.609Z,10.30
2022-08-14T05:54:26.651Z,15.02
2022-08-14T05:57:12.858Z,15.05
2022-08-14T05:59:58.851Z,10.77
2022-08-14T06:02:46.155Z,11.18
2022-08-14T06:05:31.949Z,15.50
2022-08-14T06:08:35.604Z,14.27
2022-08-14T06:11:23.882Z,12.57
2022-08-14T06:14:20.860Z,14.82
2022-08-14T06:17:07.446Z,13.30
2022-08-14T06:19:53.381Z,16.83
2022-08-14T06:22:43.862Z,14.80
2022-08-14T06:25:31.725Z,15.63
2022-08-14T06:28:27.495Z,18.88
2022-08-14T06:31:14.140Z,20.40
2022-08-14T06:35:09.214Z,16.58
2022-08-14T06:37:05.967Z,23.38
2022-08-14T06:39:51.353Z,22.55
2022-08-14T06:42:38.608Z,19.80
2022-08-14T06:45:26.959Z,17.08
2022-08-14T06:48:24.876Z,16.70
2022-08-14T06:51:10.418Z,16.13
2022-08-14T06:53:57.107Z,22.02
2022-08-14T06:56:44.474Z,16.48
2022-08-14T06:59:40.697Z,15.00
2022-08-14T07:02:48.240Z,18.25
2022-08-14T07:05:57.832Z,15.65
2022-08-14T07:08:44.891Z,13.00
2022-08-14T07:11:33.386Z,13.20
2022-08-14T07:14:20.515Z,18.30
2022-08-14T07:17:06.767Z,13.00
2022-08-14T07:19:53.131Z,9.68
2022-08-14T07:22:49.855Z,13.48
2022-08-14T07:25:44.341Z,12.00
2022-08-14T07:28:33.436Z,10.68
2022-08-14T07:31:21.437Z,11.10
2022-08-14T07:34:06.820Z,8.93
2022-08-14T07:37:00.798Z,7.90
2022-08-14T07:39:47.074Z,9.23
2022-08-14T07:42:32.994Z,8.38
2022-08-14T07:45:18.659Z,9.55
2022-08-14T07:48:05.572Z,8.85
2022-08-14T07:50:51.119Z,8.73
2022-08-14T07:53:40.396Z,8.13
2022-08-14T07:56:47.487Z,6.75
2022-08-14T07:59:40.909Z,10.35
2022-08-14T08:02:32.616Z,9.65
2022-08-14T08:05:19.805Z,8.38
2022-08-14T08:08:08.428Z,10.35
2022-08-14T08:11:14.958Z,7.65
2022-08-14T08:14:03.169Z,7.22
2022-08-14T08:16:51.230Z,8.93
2022-08-14T08:19:39.829Z,7.03
2022-08-14T08:22:28.088Z,6.47
2022-08-14T08:25:19.153Z,9.68
2022-08-14T08:28:19.757Z,8.65
2022-08-14T08:31:08.253Z,10.88
2022-08-14T08:33:54.165Z,5.47
2022-08-14T08:36:46.658Z,5.97
2022-08-14T08:40:02.739Z,8.10
2022-08-14T08:42:52.213Z,6.15
2022-08-14T08:45:38.659Z,7.70
2022-08-14T08:48:31.413Z,7.15
2022-08-14T08:51:33.329Z,8.27
2022-08-14T08:54:26.681Z,6.30
2022-08-14T08:57:16.562Z,5.82
2022-08-14T09:00:25.431Z,10.88
2022-08-14T09:03:15.697Z,7.78
2022-08-14T09:06:04.224Z,7.55
2022-08-14T09:09:33.063Z,5.43
2022-08-14T09:12:21.636Z,6.97
2022-08-14T09:15:12.269Z,5.07
2022-08-14T09:17:58.181Z,6.27
2022-08-14T09:20:47.187Z,7.35
2022-08-14T09:23:34.491Z,4.93
2022-08-14T09:26:21.632Z,4.10
2022-08-14T09:29:07.857Z,5.43
2022-08-14T09:32:00.301Z,6.13
2022-08-14T09:35:13.644Z,7.32
2022-08-14T09:38:27.579Z,4.35
2022-08-14T09:41:21.860Z,5.40
2022-08-14T09:44:54.367Z,4.57
2022-08-14T09:47:52.369Z,5.70
2022-08-14T09:50:50.928Z,6.68
2022-08-14T09:54:18.429Z,5.22
2022-08-14T09:56:56.542Z,5.63
2022-08-14T09:59:51.377Z,2.95
2022-08-14T10:02:37.364Z,5.55
2022-08-14T10:05:34.247Z,4.78
2022-08-14T10:08:25.755Z,4.28
2022-08-14T10:11:23.225Z,5.95
2022-08-14T10:14:29.509Z,5.40
2022-08-14T10:17:27.469Z,6.35
2022-08-14T10:20:40.891Z,2.38
2022-08-14T10:23:23.759Z,5.13
2022-08-14T10:26:09.991Z,6.60
2022-08-14T10:29:19.391Z,3.60
2022-08-14T10:32:17.788Z,2.90
2022-08-14T10:35:16.157Z,4.22
2022-08-14T10:38:01.817Z,5.40
2022-08-14T10:40:51.993Z,7.30
2022-08-14T10:43:38.061Z,3.58
2022-08-14T10:47:39.094Z,4.65
2022-08-14T10:49:29.784Z,3.25
2022-08-14T10:52:24.298Z,4.28
2022-08-14T10:55:14.339Z,5.45
2022-08-14T10:57:59.795Z,6.00
2022-08-14T11:00:58.182Z,3.03
2022-08-14T11:03:56.148Z,2.60
2022-08-14T11:06:54.478Z,2.58
2022-08-14T11:09:57.391Z,2.17
2022-08-14T11:12:50.321Z,3.45
2022-08-14T11:15:36.895Z,4.53
2022-08-14T11:18:30.377Z,4.55
2022-08-14T11:21:23.337Z,3.65
2022-08-14T11:24:54.630Z,2.72
2022-08-14T11:27:20.315Z,3.22
2022-08-14T11:30:49.032Z,7.18
2022-08-14T11:33:16.944Z,4.05
2022-08-14T11:36:05.660Z,3.45
2022-08-14T11:39:03.830Z,3.72
2022-08-14T11:41:58.038Z,4.00
2022-08-14T11:44:45.671Z,3.58
2022-08-14T11:47:43.858Z,3.22
2022-08-14T11:50:44.008Z,3.42
2022-08-14T11:53:31.370Z,3.80
2022-08-14T11:56:17.661Z,4.90
2022-08-14T11:59:03.173Z,3.13
2022-08-14T12:01:49.461Z,4.63
2022-08-14T12:04:35.384Z,5.15
2022-08-14T12:07:21.786Z,5.68
2022-08-14T12:10:26.831Z,4.85
2022-08-14T12:13:19.069Z,3.88
2022-08-14T12:16:11.246Z,2.97
2022-08-14T12:19:06.335Z,5.32
2022-08-14T12:21:54.974Z,2.90
2022-08-14T12:24:44.482Z,3.67
2022-08-14T12:27:54.652Z,6.65
2022-08-14T12:30:48.611Z,2.72
2022-08-14T12:33:39.189Z,5.63
2022-08-14T12:36:33.105Z,5.55
2022-08-14T12:39:23.952Z,4.75
2022-08-14T12:42:11.937Z,4.38
2022-08-14T12:45:17.460Z,2.53
2022-08-14T12:48:21.481Z,3.70
2022-08-14T12:51:21.586Z,3.13
2022-08-14T12:54:28.526Z,3.85
2022-08-14T12:57:19.786Z,3.53
2022-08-14T13:00:23.145Z,2.97
2022-08-14T13:03:09.590Z,3.72
2022-08-14T13:05:56.469Z,2.50
2022-08-14T13:08:53.260Z,5.63
2022-08-14T13:11:44.841Z,5.43
2022-08-14T13:14:32.753Z,5.57
2022-08-14T13:17:19.806Z,3.67
2022-08-14T13:20:10.161Z,4.40
2022-08-14T13:22:56.357Z,3.08
2022-08-14T13:25:55.653Z,3.15
2022-08-14T13:29:02.446Z,4.07
2022-08-14T13:31:51.912Z,4.70
2022-08-14T13:34:41.242Z,5.55
2022-08-14T13:37:27.299Z,4.97
2022-08-14T13:40:14.567Z,4.78
2022-08-14T13:43:00.367Z,6.28
2022-08-14T13:46:00.846Z,5.45
2022-08-14T13:48:48.131Z,4.22
2022-08-14T13:51:39.101Z,2.72
2022-08-14T13:54:30.137Z,2.88
2022-08-14T13:57:17.826Z,2.72
2022-08-14T14:00:13.077Z,3.25
2022-08-14T14:03:00.226Z,4.43
2022-08-14T14:05:52.784Z,1.58
2022-08-14T14:08:47.900Z,1.90
2022-08-14T14:11:33.819Z,4.03
2022-08-14T14:14:44.959Z,2.20
2022-08-14T14:17:28.842Z,4.00
2022-08-14T14:20:35.148Z,4.22
2022-08-14T14:23:23.465Z,1.48
2022-08-14T14:26:14.019Z,2.20
2022-08-14T14:29:01.673Z,2.50
2022-08-14T14:31:49.251Z,3.42
2022-08-14T14:34:37.696Z,3.55
2022-08-14T14:37:24.115Z,2.60
2022-08-14T14:40:52.865Z,4.78
2022-08-14T14:43:21.351Z,2.80
2022-08-14T14:46:09.840Z,2.20
2022-08-14T14:49:01.466Z,5.50
2022-08-14T14:51:51.042Z,2.63
2022-08-14T14:54:39.326Z,3.22
2022-08-14T14:57:35.816Z,6.85
2022-08-14T15:00:22.302Z,2.97
2022-08-14T15:03:07.535Z,6.95
2022-08-14T15:05:53.321Z,2.08
2022-08-14T15:08:56.630Z,1.80
2022-08-14T15:11:47.086Z,5.60
2022-08-14T15:14:55.818Z,4.72
2022-08-14T15:17:42.052Z,2.42
2022-08-14T15:20:29.735Z,2.53
2022-08-14T15:23:17.015Z,3.80
2022-08-14T15:26:08.547Z,2.10
2022-08-14T15:29:03.036Z,7.70
2022-08-14T15:31:50.994Z,3.15
2022-08-14T15:34:45.553Z,4.13
2022-08-14T15:37:37.156Z,5.00
2022-08-14T15:40:27.801Z,3.70
2022-08-14T15:43:13.308Z,5.15
2022-08-14T15:46:10.472Z,2.53
2022-08-14T15:49:16.900Z,1.83
2022-08-14T15:52:07.778Z,2.45
2022-08-14T15:54:53.470Z,3.35
2022-08-14T15:57:39.514Z,3.17
2022-08-14T16:01:03.252Z,5.28
2022-08-14T16:03:53.445Z,4.50
2022-08-14T16:06:38.899Z,6.40
2022-08-14T16:09:24.497Z,4.22
2022-08-14T16:12:10.264Z,7.90
2022-08-14T16:14:56.342Z,5.88
2022-08-14T16:17:43.927Z,6.07
2022-08-14T16:20:42.563Z,5.00
2022-08-14T16:23:36.080Z,2.78
2022-08-14T16:26:29.160Z,2.78
2022-08-14T16:29:34.566Z,4.70
2022-08-14T16:32:32.721Z,3.67
2022-08-14T16:35:20.986Z,4.65
2022-08-14T16:38:35.784Z,3.22
2022-08-14T16:41:22.254Z,5.75
2022-08-14T16:44:31.856Z,6.57
2022-08-14T16:47:22.634Z,5.25
2022-08-14T16:50:11.789Z,3.92
2022-08-14T16:56:07.284Z,4.63
2022-08-14T16:59:13.104Z,5.75
2022-08-14T17:02:05.103Z,3.38
2022-08-14T17:04:52.801Z,4.53
2022-08-14T17:07:44.869Z,4.55
2022-08-14T17:10:34.390Z,5.28
2022-08-14T17:13:59.255Z,4.72
2022-08-14T17:16:38.435Z,5.88
2022-08-14T17:19:25.196Z,4.18
2022-08-14T17:22:12.182Z,6.88
2022-08-14T17:25:03.537Z,2.88
2022-08-14T17:28:50.632Z,4.90
2022-08-14T17:31:57.743Z,5.60
2022-08-14T17:34:51.037Z,4.45
2022-08-14T17:37:44.822Z,3.65
2022-08-14T17:40:30.945Z,6.82
2022-08-14T17:43:16.297Z,4.45
2022-08-14T17:46:02.523Z,4.47
2022-08-14T17:49:15.784Z,5.88
2022-08-14T17:52:34.852Z,5.63
2022-08-14T17:56:01.939Z,5.88
2022-08-14T17:58:38.410Z,6.53
2022-08-14T18:01:29.536Z,4.22
2022-08-14T18:04:27.787Z,4.47
2022-08-14T18:07:59.696Z,6.00
2022-08-14T18:10:51.868Z,2.35
2022-08-14T18:13:51.033Z,3.42
2022-08-14T18:16:39.774Z,3.05
2022-08-14T18:19:29.902Z,2.75
2022-08-14T18:22:30.828Z,3.65
2022-08-14T18:25:22.681Z,5.43
2022-08-14T18:28:16.014Z,4.20
2022-08-14T18:31:43.904Z,4.53
2022-08-14T18:34:38.227Z,4.95
2022-08-14T18:37:36.517Z,6.00
2022-08-14T18:40:22.942Z,6.30
2022-08-14T18:43:41.770Z,6.28
2022-08-14T18:46:59.781Z,5.45
2022-08-14T18:49:57.820Z,7.97
2022-08-14T18:52:46.015Z,6.65
2022-08-14T18:55:34.953Z,6.88
2022-08-14T18:58:45.127Z,8.10
2022-08-14T19:01:33.433Z,5.63
2022-08-14T19:04:37.217Z,8.10
2022-08-14T19:07:23.046Z,6.10
2022-08-14T19:10:16.794Z,4.90
2022-08-14T19:13:05.414Z,5.85
2022-08-14T19:16:33.667Z,7.00
2022-08-14T19:19:19.646Z,5.85
2022-08-14T19:22:29.595Z,5.82
2022-08-14T19:25:51.721Z,6.05
2022-08-14T19:28:46.981Z,7.18
2022-08-14T19:31:37.114Z,9.70
2022-08-14T19:34:52.721Z,6.53
2022-08-14T19:37:54.021Z,9.63
2022-08-14T19:40:42.768Z,6.65
2022-08-14T19:43:55.998Z,9.90
2022-08-14T19:46:39.544Z,7.93
2022-08-14T19:50:24.724Z,8.45
2022-08-14T19:53:00.455Z,9.27
2022-08-14T19:55:59.317Z,9.13
2022-08-14T19:58:54.532Z,12.02
2022-08-14T20:01:42.815Z,6.90
2022-08-14T20:04:46.395Z,13.45
2022-08-14T20:09:04.979Z,11.80
2022-08-14T20:12:02.181Z,8.65
2022-08-14T20:14:38.807Z,9.70
2022-08-14T20:17:27.519Z,9.63
2022-08-14T20:20:30.743Z,7.43
2022-08-14T20:23:19.835Z,10.07
2022-08-14T20:26:31.193Z,11.38
2022-08-14T20:29:31.249Z,9.53
2022-08-14T20:32:33.296Z,11.20
2022-08-14T20:35:35.587Z,9.15
2022-08-14T20:38:30.203Z,8.65
2022-08-14T20:41:20.640Z,9.95
2022-08-14T20:44:28.639Z,10.38
2022-08-14T20:47:16.912Z,7.20
2022-08-14T20:50:28.410Z,9.77
2022-08-14T20:53:28.459Z,10.70
2022-08-14T20:56:28.608Z,9.48
2022-08-14T20:59:21.494Z,10.00
2022-08-14T21:02:29.449Z,9.18
2022-08-14T21:05:19.628Z,9.98
2022-08-14T21:08:09.856Z,7.75
2022-08-14T21:11:13.291Z,7.45
2022-08-14T21:14:26.336Z,8.23
2022-08-14T21:17:10.355Z,8.07
2022-08-14T21:19:55.547Z,7.95
2022-08-14T21:22:44.619Z,7.50
2022-08-14T21:25:34.505Z,8.80
2022-08-14T21:28:29.379Z,6.57
2022-08-14T21:31:16.095Z,5.80
2022-08-14T21:34:05.497Z,4.82
2022-08-14T21:37:09.837Z,6.93
2022-08-14T21:39:58.632Z,3.47
2022-08-14T21:42:44.506Z,6.78
2022-08-14T21:45:35.655Z,6.57
2022-08-14T21:48:26.534Z,6.13
2022-08-14T21:51:53.452Z,3.50
2022-08-14T21:54:31.879Z,6.18
2022-08-14T21:57:56.021Z,9.68
2022-08-14T22:00:30.174Z,6.38
2022-08-14T22:03:23.443Z,5.93
2022-08-14T22:08:59.396Z,9.02
2022-08-14T22:11:46.423Z,4.30
2022-08-14T22:14:45.124Z,5.13
2022-08-14T22:17:34.224Z,2.72
2022-08-14T22:20:20.593Z,7.65
2022-08-14T22:23:12.626Z,4.63
2022-08-14T22:25:59.663Z,4.90
2022-08-14T22:28:49.052Z,8.30
2022-08-14T22:31:42.247Z,8.25
2022-08-14T22:34:29.595Z,3.95
2022-08-14T22:37:15.531Z,3.75
2022-08-14T22:40:50.766Z,4.22
2022-08-14T22:43:09.048Z,3.28
2022-08-14T22:45:55.401Z,6.93
2022-08-14T22:48:41.476Z,4.15
2022-08-14T22:51:27.829Z,6.03
2022-08-14T22:54:52.418Z,3.83
2022-08-14T22:57:19.592Z,3.65
2022-08-14T23:00:13.417Z,5.15
2022-08-14T23:03:02.175Z,2.75
2022-08-14T23:05:52.472Z,4.20
2022-08-14T23:08:58.657Z,5.95
2022-08-14T23:11:47.815Z,3.58
2022-08-14T23:14:34.316Z,8.38
2022-08-14T23:17:20.733Z,4.20
2022-08-14T23:20:19.719Z,3.55
2022-08-14T23:23:12.705Z,4.80
2022-08-14T23:26:47.261Z,3.22
2022-08-14T23:29:05.018Z,4.30
2022-08-14T23:31:50.746Z,3.67
2022-08-14T23:34:39.535Z,5.55
2022-08-14T23:37:33.891Z,3.15
2022-08-14T23:40:29.757Z,4.80
2022-08-14T23:46:01.663Z,4.30
2022-08-14T23:48:58.544Z,3.45
2022-08-14T23:51:43.810Z,3.55
2022-08-14T23:54:48.564Z,4.88
2022-08-14T23:57:35.352Z,6.75
